Hamnavoe — VSTY7 — position and weather

sailwx.info

Track history (hours):
 
Tides and Currents Weather Stations Pressure Air Temp Water Temp Dewpoint Dewpoint Depression Visibility Wind Speed Wind Dir Waves Ship Positions

Hamnavoe

Operator: NorthLink Orkey & Shetland Ferries Ltd

Last reported at 2015-Jul-29 15:33 UTC. Time now 2015-Jul-29 15:59 UTC.
Position N 58°58' W 003°18'.

Length 112 m; draft 4.2 m.

Type: Ship. MMSI: 235449000.

Date/timePositionNaut miles runAvg speedWind from/ knotsBaromVisibWave heightAir tempDewpointWater temp
2015-Jul-29 15:33N 58°58' W 003°18'0 0.0
2015-Jul-29 14:33N 58°58' W 003°18'2 1.6
2015-Jul-29 13:33N 58°57' W 003°20'1615.8
2015-Jul-29 12:33N 58°42' W 003°30'5 5.4
2015-Jul-29 11:33N 58°37' W 003°32'1616.3
2015-Jul-29 10:33N 58°53' W 003°28'7 7.2
2015-Jul-29 09:33N 58°58' W 003°18'10 9.8
2015-Jul-29 08:33N 58°50' W 003°29'1313.3
2015-Jul-29 07:33N 58°37' W 003°32'6 6.3
2015-Jul-29 06:33N 58°43' W 003°30'1615.7
2015-Jul-29 05:33N 58°57' W 003°18'1 0.6
2015-Jul-29 04:32N 58°58' W 003°18'0 0.0
2015-Jul-29 03:32N 58°58' W 003°18'0 0.0
2015-Jul-29 02:32N 58°58' W 003°18'0 0.0
2015-Jul-29 01:32N 58°58' W 003°18'0 0.0
2015-Jul-29 00:32N 58°58' W 003°18'0 0.0
2015-Jul-28 23:32N 58°58' W 003°18'0 0.0
2015-Jul-28 22:32N 58°58' W 003°18'0 0.0
2015-Jul-28 21:32N 58°58' W 003°18'0 0.0
2015-Jul-28 20:20N 58°58' W 003°18'0 0.0
2015-Jul-28 19:33N 58°58' W 003°18'1312.6
2015-Jul-28 18:33N 58°47' W 003°29'1010.2
2015-Jul-28 17:34N 58°37' W 003°32'1110.7
2015-Jul-28 16:33N 58°47' W 003°29'1212.1
2015-Jul-28 15:33N 58°58' W 003°18'0 0.0
2015-Jul-28 14:33N 58°58' W 003°18'1 1.1
2015-Jul-28 13:33N 58°57' W 003°18'1615.8
2015-Jul-28 12:33N 58°42' W 003°31'6 5.6
2015-Jul-28 11:32N 58°37' W 003°32'1514.8
2015-Jul-28 10:33N 58°51' W 003°29'9 8.8
2015-Jul-28 09:33N 58°58' W 003°18'9 9.3
2015-Jul-28 08:33N 58°50' W 003°28'1413.6
2015-Jul-28 07:33N 58°37' W 003°32'6 5.9
2015-Jul-28 06:33N 58°42' W 003°31'1616.2
2015-Jul-28 05:33N 58°57' W 003°17'1 0.6
2015-Jul-28 04:29N 58°58' W 003°18'0 0.0
2015-Jul-28 03:29N 58°58' W 003°18'0 0.0
2015-Jul-28 02:23N 58°58' W 003°18'0 0.0
2015-Jul-28 01:29N 58°58' W 003°18'0 0.0
2015-Jul-28 00:29N 58°58' W 003°18'0 0.0
2015-Jul-27 23:29N 58°58' W 003°18'0 0.0
2015-Jul-27 22:29N 58°58' W 003°18'0 0.0
2015-Jul-27 21:29N 58°58' W 003°18'0 0.0
2015-Jul-27 20:29N 58°58' W 003°18'0 0.0
2015-Jul-27 19:33N 58°58' W 003°18'1211.6
2015-Jul-27 18:33N 58°48' W 003°29'10 6.9
2015-Jul-27 17:05N 58°38' W 003°31'1018.3
2015-Jul-27 16:33N 58°48' W 003°30'1212.1
2015-Jul-27 15:34N 58°58' W 003°18'0 0.0
2015-Jul-27 14:33N 58°58' W 003°18'1 0.8
2015-Jul-27 13:33N 58°57' W 003°17'1616.1
2015-Jul-27 12:33N 58°43' W 003°31'6 5.8
2015-Jul-27 11:30N 58°37' W 003°32'1414.8
2015-Jul-27 10:33N 58°50' W 003°28'9 9.1
2015-Jul-27 09:33N 58°58' W 003°18'8 8.3
2015-Jul-27 08:33N 58°51' W 003°28'1513.5
2015-Jul-27 07:27N 58°37' W 003°32'7 7.5
2015-Jul-27 06:33N 58°43' W 003°30'1615.6
2015-Jul-27 05:34N 58°58' W 003°18'0 0.2
2015-Jul-27 04:28N 58°58' W 003°18'0 0.0
2015-Jul-27 03:28N 58°58' W 003°18'0 0.0
2015-Jul-27 02:28N 58°58' W 003°18'0 0.0
2015-Jul-27 01:28N 58°58' W 003°18'0 0.0
2015-Jul-27 00:28N 58°58' W 003°18'0 0.0
2015-Jul-26 23:28N 58°58' W 003°18'0 0.0
2015-Jul-26 22:28N 58°58' W 003°18'0 0.0
2015-Jul-26 21:33N 58°58' W 003°18'0 0.0
2015-Jul-26 20:33N 58°58' W 003°18'0 0.0
2015-Jul-26 19:33N 58°58' W 003°18'1111.1
2015-Jul-26 18:33N 58°48' W 003°29'1211.6
2015-Jul-26 17:32N 58°37' W 003°32'10 9.9
2015-Jul-26 16:33N 58°46' W 003°30'1313.0
2015-Jul-26 15:33N 58°58' W 003°18'0 0.0
2015-Jul-26 14:33N 58°58' W 003°18'0 0.0
2015-Jul-26 13:33N 58°58' W 003°18'0 0.0
2015-Jul-26 12:33N 58°58' W 003°18'1111.1
2015-Jul-26 11:33N 58°48' W 003°29'1211.7
2015-Jul-26 10:33N 58°37' W 003°32'0 0.0
2015-Jul-26 09:33N 58°37' W 003°32'1414.3
2015-Jul-26 08:33N 58°51' W 003°28'9 8.3
2015-Jul-26 07:28N 58°58' W 003°18'0 0.0
2015-Jul-26 06:28N 58°58' W 003°18'0 0.0
2015-Jul-26 05:10N 58°58' W 003°18'0 0.0
2015-Jul-26 04:10N 58°58' W 003°18'0 0.0
2015-Jul-26 03:28N 58°58' W 003°18'0 0.0
2015-Jul-26 02:28N 58°58' W 003°18'0 0.0
2015-Jul-26 01:28N 58°58' W 003°18'0 0.0
2015-Jul-26 00:22N 58°58' W 003°18'0 0.0
2015-Jul-25 23:28N 58°58' W 003°18'0 0.0
2015-Jul-25 22:28N 58°58' W 003°18'0 0.0
2015-Jul-25 21:30N 58°58' W 003°18'0 0.0
2015-Jul-25 20:30N 58°58' W 003°18'0 0.0
2015-Jul-25 19:32N 58°58' W 003°18'1212.1
2015-Jul-25 18:33N 58°47' W 003°29'1110.7
2015-Jul-25 17:32N 58°37' W 003°32'1212.6
2015-Jul-25 16:33N 58°49' W 003°28'1110.5
2015-Jul-25 15:33N 58°58' W 003°18'0 0.0
2015-Jul-25 14:33N 58°58' W 003°18'1 1.1
2015-Jul-25 13:33N 58°57' W 003°17'1616.1
2015-Jul-25 12:33N 58°42' W 003°31'6 5.4
2015-Jul-25 11:31N 58°37' W 003°32'1516.0
2015-Jul-25 10:33N 58°52' W 003°28'8 7.9
2015-Jul-25 09:34N 58°58' W 003°18'8 8.2
2015-Jul-25 08:33N 58°52' W 003°28'1515.0
2015-Jul-25 07:33N 58°37' W 003°32'6 6.0
2015-Jul-25 06:33N 58°43' W 003°30'1616.1
2015-Jul-25 05:33N 58°57' W 003°18'0 0.5
2015-Jul-25 04:33N 58°58' W 003°18'0 0.0
2015-Jul-25 03:33N 58°58' W 003°18'0 0.0
2015-Jul-25 02:33N 58°58' W 003°18'0 0.0
2015-Jul-25 01:33N 58°58' W 003°18'0 0.0
2015-Jul-25 00:33N 58°58' W 003°18'0 0.0
2015-Jul-24 23:33N 58°58' W 003°18'0 0.0
2015-Jul-24 22:33N 58°58' W 003°18'0 0.0
2015-Jul-24 21:33N 58°58' W 003°18'0 0.0
2015-Jul-24 20:33N 58°58' W 003°18'0 0.0
2015-Jul-24 19:33N 58°58' W 003°18'1211.6
2015-Jul-24 18:33N 58°48' W 003°28'1111.2
2015-Jul-24 17:33N 58°37' W 003°32'1111.0
2015-Jul-24 16:33N 58°48' W 003°29'1211.8
2015-Jul-24 15:33N 58°58' W 003°18'0 0.0
2015-Jul-24 14:33N 58°58' W 003°18'1 1.0
2015-Jul-24 13:33N 58°57' W 003°17'1615.9
2015-Jul-24 12:34N 58°42' W 003°30'6 5.8
2015-Jul-24 11:33N 58°37' W 003°32'1515.1
2015-Jul-24 10:34N 58°51' W 003°28'8 8.2
2015-Jul-24 09:33N 58°58' W 003°18'8 7.9
2015-Jul-24 08:33N 58°52' W 003°28'1615.6
2015-Jul-24 07:33N 58°37' W 003°32'7 7.0
2015-Jul-24 06:33N 58°44' W 003°29'1515.3
2015-Jul-24 05:33N 58°58' W 003°18'0 0.2
2015-Jul-24 04:32N 58°58' W 003°18'0 0.0
2015-Jul-24 03:32N 58°58' W 003°18'0 0.0
2015-Jul-24 02:32N 58°58' W 003°18'0 0.0
2015-Jul-24 01:32N 58°58' W 003°18'0 0.0
2015-Jul-24 00:32N 58°58' W 003°18'0 0.0
2015-Jul-23 23:32N 58°58' W 003°18'0 0.0
2015-Jul-23 22:32N 58°58' W 003°18'0 0.0
2015-Jul-23 21:32N 58°58' W 003°18'0 0.0
2015-Jul-23 20:32N 58°58' W 003°18'1 1.1
2015-Jul-23 19:33N 58°57' W 003°17'1615.7
2015-Jul-23 18:33N 58°43' W 003°30'6 6.0
2015-Jul-23 17:33N 58°37' W 003°32'1312.6
2015-Jul-23 16:33N 58°49' W 003°31'1110.9
2015-Jul-23 15:33N 58°58' W 003°18'0 0.0
2015-Jul-23 14:33N 58°58' W 003°18'5 5.0
2015-Jul-23 13:33N 58°54' W 003°12'1514.7
2015-Jul-23 12:33N 58°40' W 003°25'5 5.4
2015-Jul-23 11:33N 58°37' W 003°32'1716.7
2015-Jul-23 10:33N 58°53' W 003°28'7 7.0
2015-Jul-23 09:33N 58°58' W 003°18'8 7.8
2015-Jul-23 08:33N 58°52' W 003°28'1611.8
2015-Jul-23 07:14N 58°37' W 003°32'6 8.9
2015-Jul-23 06:33N 58°43' W 003°30'1615.5
2015-Jul-23 05:33N 58°57' W 003°18'1 1.0
2015-Jul-23 04:30N 58°58' W 003°18'0 0.0
2015-Jul-23 03:30N 58°58' W 003°18'0 0.0
2015-Jul-23 02:30N 58°58' W 003°18'0 0.0
2015-Jul-23 01:30N 58°58' W 003°18'0 0.0
2015-Jul-23 00:30N 58°58' W 003°18'0 0.0
2015-Jul-22 23:24N 58°58' W 003°18'0 0.0
2015-Jul-22 22:30N 58°58' W 003°18'0 0.0
2015-Jul-22 21:33N 58°58' W 003°18'0 0.0
2015-Jul-22 20:33N 58°58' W 003°18'0 0.0
2015-Jul-22 19:33N 58°58' W 003°18'1211.6
2015-Jul-22 18:33N 58°48' W 003°29'1111.2
2015-Jul-22 17:33N 58°37' W 003°32'1010.1
2015-Jul-22 16:33N 58°47' W 003°29'1312.7
2015-Jul-22 15:33N 58°58' W 003°18'0 0.0
2015-Jul-22 14:33N 58°58' W 003°18'1 0.7
2015-Jul-22 13:33N 58°57' W 003°17'1515.5
2015-Jul-22 12:34N 58°43' W 003°30'7 6.5
2015-Jul-22 11:32N 58°37' W 003°32'1616.4
2015-Jul-22 10:33N 58°53' W 003°28'7 7.4
2015-Jul-22 09:33N 58°58' W 003°18'7 7.4
2015-Jul-22 08:33N 58°52' W 003°27'1615.1
2015-Jul-22 07:30N 58°37' W 003°32'7 7.4
2015-Jul-22 06:33N 58°43' W 003°30'1515.3
2015-Jul-22 05:34N 58°57' W 003°18'0 0.4
2015-Jul-22 04:31N 58°58' W 003°18'0 0.0
2015-Jul-22 03:31N 58°58' W 003°18'0 0.0
2015-Jul-22 02:31N 58°58' W 003°18'0 0.0
2015-Jul-22 01:31N 58°58' W 003°18'0 0.0
2015-Jul-22 00:31N 58°58' W 003°18'0 0.0
2015-Jul-21 23:31N 58°58' W 003°18'0 0.0
2015-Jul-21 22:31N 58°58' W 003°18'0 0.0
2015-Jul-21 21:31N 58°58' W 003°18'0 0.0
2015-Jul-21 20:31N 58°58' W 003°18'0 0.2
2015-Jul-21 19:33N 58°58' W 003°18'1514.8
2015-Jul-21 18:33N 58°44' W 003°29'8 7.6
2015-Jul-21 17:33N 58°37' W 003°32'1111.2
2015-Jul-21 16:33N 58°48' W 003°29'1211.6
2015-Jul-21 15:33N 58°58' W 003°18'0 0.0
2015-Jul-21 14:33N 58°58' W 003°18'0 0.1
2015-Jul-21 13:33N 58°58' W 003°18'1514.9
2015-Jul-21 12:33N 58°44' W 003°30'8 7.7
2015-Jul-21 11:33N 58°37' W 003°32'1515.2
2015-Jul-21 10:33N 58°52' W 003°28'8 8.2
2015-Jul-21 09:33N 58°58' W 003°18'8 7.7
2015-Jul-21 08:33N 58°52' W 003°28'1615.8
2015-Jul-21 07:33N 58°37' W 003°32'6 5.7
2015-Jul-21 06:33N 58°42' W 003°30'1616.3
2015-Jul-21 05:34N 58°57' W 003°17'1 0.8
2015-Jul-21 04:32N 58°58' W 003°18'0 0.0
2015-Jul-21 03:32N 58°58' W 003°18'0 0.0
2015-Jul-21 02:32N 58°58' W 003°18'0 0.0
2015-Jul-21 01:32N 58°58' W 003°18'0 0.0
2015-Jul-21 00:32N 58°58' W 003°18'0 0.0
2015-Jul-20 23:32N 58°58' W 003°18'0 0.0
2015-Jul-20 22:32N 58°58' W 003°18'0 0.0
2015-Jul-20 21:32N 58°58' W 003°18'0 0.0
2015-Jul-20 20:32N 58°58' W 003°18'0 0.0
2015-Jul-20 19:33N 58°58' W 003°18'1313.3
2015-Jul-20 18:33N 58°46' W 003°29'9 9.4
2015-Jul-20 17:33N 58°37' W 003°32'1110.7
2015-Jul-20 16:33N 58°47' W 003°29'1212.2
2015-Jul-20 15:33N 58°58' W 003°18'0 0.0
2015-Jul-20 14:33N 58°58' W 003°18'0 0.5
2015-Jul-20 13:34N 58°57' W 003°18'1515.2
2015-Jul-20 12:33N 58°43' W 003°30'7 6.9
2015-Jul-20 11:33N 58°37' W 003°32'1615.5
2015-Jul-20 10:33N 58°52' W 003°28'8 7.9
2015-Jul-20 09:33N 58°58' W 003°18'8 7.6
2015-Jul-20 08:33N 58°52' W 003°28'1615.8
2015-Jul-20 07:33N 58°37' W 003°32'6 6.4
2015-Jul-20 06:33N 58°43' W 003°30'1615.8
2015-Jul-20 05:33N 58°57' W 003°18'0 0.4
2015-Jul-20 04:30N 58°58' W 003°18'0 0.0
2015-Jul-20 03:30N 58°58' W 003°18'0 0.0
2015-Jul-20 02:30N 58°58' W 003°18'0 0.0
2015-Jul-20 01:30N 58°58' W 003°18'0 0.0
2015-Jul-20 00:30N 58°58' W 003°18'0 0.0
2015-Jul-19 23:30N 58°58' W 003°18'0 0.0
2015-Jul-19 22:30N 58°58' W 003°18'0 0.0
2015-Jul-19 21:30N 58°58' W 003°18'0 0.0
2015-Jul-19 20:30N 58°58' W 003°18'0 0.0
2015-Jul-19 19:33N 58°58' W 003°18'1211.8
2015-Jul-19 18:33N 58°48' W 003°29'1111.0
2015-Jul-19 17:33N 58°37' W 003°32'1110.9
2015-Jul-19 16:33N 58°47' W 003°28'  
Track history (hours):
 
Tides and Currents Weather Stations Pressure Air Temp Water Temp Dewpoint Dewpoint Depression Visibility Wind Speed Wind Dir Waves Ship Positions

Hamnavoe

Operator: NorthLink Orkey & Shetland Ferries Ltd

Last reported at 2015-Jul-29 15:33 UTC. Time now 2015-Jul-29 15:59 UTC.
Position N 58°58' W 003°18'.

Length 112 m; draft 4.2 m.

Type: Ship. MMSI: 235449000.

Date/timePositionNaut miles runAvg speedWind from/ knotsBaromVisibWave heightAir tempDewpointWater temp
2015-Jul-29 15:33N 58°58' W 003°18'0 0.0
2015-Jul-29 14:33N 58°58' W 003°18'2 1.6
2015-Jul-29 13:33N 58°57' W 003°20'1615.8
2015-Jul-29 12:33N 58°42' W 003°30'5 5.4
2015-Jul-29 11:33N 58°37' W 003°32'1616.3
2015-Jul-29 10:33N 58°53' W 003°28'7 7.2
2015-Jul-29 09:33N 58°58' W 003°18'10 9.8
2015-Jul-29 08:33N 58°50' W 003°29'1313.3
2015-Jul-29 07:33N 58°37' W 003°32'6 6.3
2015-Jul-29 06:33N 58°43' W 003°30'1615.7
2015-Jul-29 05:33N 58°57' W 003°18'1 0.6
2015-Jul-29 04:32N 58°58' W 003°18'0 0.0
2015-Jul-29 03:32N 58°58' W 003°18'0 0.0
2015-Jul-29 02:32N 58°58' W 003°18'0 0.0
2015-Jul-29 01:32N 58°58' W 003°18'0 0.0
2015-Jul-29 00:32N 58°58' W 003°18'0 0.0
2015-Jul-28 23:32N 58°58' W 003°18'0 0.0
2015-Jul-28 22:32N 58°58' W 003°18'0 0.0
2015-Jul-28 21:32N 58°58' W 003°18'0 0.0
2015-Jul-28 20:20N 58°58' W 003°18'0 0.0
2015-Jul-28 19:33N 58°58' W 003°18'1312.6
2015-Jul-28 18:33N 58°47' W 003°29'1010.2
2015-Jul-28 17:34N 58°37' W 003°32'1110.7
2015-Jul-28 16:33N 58°47' W 003°29'1212.1
2015-Jul-28 15:33N 58°58' W 003°18'0 0.0
2015-Jul-28 14:33N 58°58' W 003°18'1 1.1
2015-Jul-28 13:33N 58°57' W 003°18'1615.8
2015-Jul-28 12:33N 58°42' W 003°31'6 5.6
2015-Jul-28 11:32N 58°37' W 003°32'1514.8
2015-Jul-28 10:33N 58°51' W 003°29'9 8.8
2015-Jul-28 09:33N 58°58' W 003°18'9 9.3
2015-Jul-28 08:33N 58°50' W 003°28'1413.6
2015-Jul-28 07:33N 58°37' W 003°32'6 5.9
2015-Jul-28 06:33N 58°42' W 003°31'1616.2
2015-Jul-28 05:33N 58°57' W 003°17'1 0.6
2015-Jul-28 04:29N 58°58' W 003°18'0 0.0
2015-Jul-28 03:29N 58°58' W 003°18'0 0.0
2015-Jul-28 02:23N 58°58' W 003°18'0 0.0
2015-Jul-28 01:29N 58°58' W 003°18'0 0.0
2015-Jul-28 00:29N 58°58' W 003°18'0 0.0
2015-Jul-27 23:29N 58°58' W 003°18'0 0.0
2015-Jul-27 22:29N 58°58' W 003°18'0 0.0
2015-Jul-27 21:29N 58°58' W 003°18'0 0.0
2015-Jul-27 20:29N 58°58' W 003°18'0 0.0
2015-Jul-27 19:33N 58°58' W 003°18'1211.6
2015-Jul-27 18:33N 58°48' W 003°29'10 6.9
2015-Jul-27 17:05N 58°38' W 003°31'1018.3
2015-Jul-27 16:33N 58°48' W 003°30'1212.1
2015-Jul-27 15:34N 58°58' W 003°18'0 0.0
2015-Jul-27 14:33N 58°58' W 003°18'1 0.8
2015-Jul-27 13:33N 58°57' W 003°17'1616.1
2015-Jul-27 12:33N 58°43' W 003°31'6 5.8
2015-Jul-27 11:30N 58°37' W 003°32'1414.8
2015-Jul-27 10:33N 58°50' W 003°28'9 9.1
2015-Jul-27 09:33N 58°58' W 003°18'8 8.3
2015-Jul-27 08:33N 58°51' W 003°28'1513.5
2015-Jul-27 07:27N 58°37' W 003°32'7 7.5
2015-Jul-27 06:33N 58°43' W 003°30'1615.6
2015-Jul-27 05:34N 58°58' W 003°18'0 0.2
2015-Jul-27 04:28N 58°58' W 003°18'0 0.0
2015-Jul-27 03:28N 58°58' W 003°18'0 0.0
2015-Jul-27 02:28N 58°58' W 003°18'0 0.0
2015-Jul-27 01:28N 58°58' W 003°18'0 0.0
2015-Jul-27 00:28N 58°58' W 003°18'0 0.0
2015-Jul-26 23:28N 58°58' W 003°18'0 0.0
2015-Jul-26 22:28N 58°58' W 003°18'0 0.0
2015-Jul-26 21:33N 58°58' W 003°18'0 0.0
2015-Jul-26 20:33N 58°58' W 003°18'0 0.0
2015-Jul-26 19:33N 58°58' W 003°18'1111.1
2015-Jul-26 18:33N 58°48' W 003°29'1211.6
2015-Jul-26 17:32N 58°37' W 003°32'10 9.9
2015-Jul-26 16:33N 58°46' W 003°30'1313.0
2015-Jul-26 15:33N 58°58' W 003°18'0 0.0
2015-Jul-26 14:33N 58°58' W 003°18'0 0.0
2015-Jul-26 13:33N 58°58' W 003°18'0 0.0
2015-Jul-26 12:33N 58°58' W 003°18'1111.1
2015-Jul-26 11:33N 58°48' W 003°29'1211.7
2015-Jul-26 10:33N 58°37' W 003°32'0 0.0
2015-Jul-26 09:33N 58°37' W 003°32'1414.3
2015-Jul-26 08:33N 58°51' W 003°28'9 8.3
2015-Jul-26 07:28N 58°58' W 003°18'0 0.0
2015-Jul-26 06:28N 58°58' W 003°18'0 0.0
2015-Jul-26 05:10N 58°58' W 003°18'0 0.0
2015-Jul-26 04:10N 58°58' W 003°18'0 0.0
2015-Jul-26 03:28N 58°58' W 003°18'0 0.0
2015-Jul-26 02:28N 58°58' W 003°18'0 0.0
2015-Jul-26 01:28N 58°58' W 003°18'0 0.0
2015-Jul-26 00:22N 58°58' W 003°18'0 0.0
2015-Jul-25 23:28N 58°58' W 003°18'0 0.0
2015-Jul-25 22:28N 58°58' W 003°18'0 0.0
2015-Jul-25 21:30N 58°58' W 003°18'0 0.0
2015-Jul-25 20:30N 58°58' W 003°18'0 0.0
2015-Jul-25 19:32N 58°58' W 003°18'1212.1
2015-Jul-25 18:33N 58°47' W 003°29'1110.7
2015-Jul-25 17:32N 58°37' W 003°32'1212.6
2015-Jul-25 16:33N 58°49' W 003°28'1110.5
2015-Jul-25 15:33N 58°58' W 003°18'0 0.0
2015-Jul-25 14:33N 58°58' W 003°18'1 1.1
2015-Jul-25 13:33N 58°57' W 003°17'1616.1
2015-Jul-25 12:33N 58°42' W 003°31'6 5.4
2015-Jul-25 11:31N 58°37' W 003°32'1516.0
2015-Jul-25 10:33N 58°52' W 003°28'8 7.9
2015-Jul-25 09:34N 58°58' W 003°18'8 8.2
2015-Jul-25 08:33N 58°52' W 003°28'1515.0
2015-Jul-25 07:33N 58°37' W 003°32'6 6.0
2015-Jul-25 06:33N 58°43' W 003°30'1616.1
2015-Jul-25 05:33N 58°57' W 003°18'0 0.5
2015-Jul-25 04:33N 58°58' W 003°18'0 0.0
2015-Jul-25 03:33N 58°58' W 003°18'0 0.0
2015-Jul-25 02:33N 58°58' W 003°18'0 0.0
2015-Jul-25 01:33N 58°58' W 003°18'0 0.0
2015-Jul-25 00:33N 58°58' W 003°18'0 0.0
2015-Jul-24 23:33N 58°58' W 003°18'0 0.0
2015-Jul-24 22:33N 58°58' W 003°18'0 0.0
2015-Jul-24 21:33N 58°58' W 003°18'0 0.0
2015-Jul-24 20:33N 58°58' W 003°18'0 0.0
2015-Jul-24 19:33N 58°58' W 003°18'1211.6
2015-Jul-24 18:33N 58°48' W 003°28'1111.2
2015-Jul-24 17:33N 58°37' W 003°32'1111.0
2015-Jul-24 16:33N 58°48' W 003°29'1211.8
2015-Jul-24 15:33N 58°58' W 003°18'0 0.0
2015-Jul-24 14:33N 58°58' W 003°18'1 1.0
2015-Jul-24 13:33N 58°57' W 003°17'1615.9
2015-Jul-24 12:34N 58°42' W 003°30'6 5.8
2015-Jul-24 11:33N 58°37' W 003°32'1515.1
2015-Jul-24 10:34N 58°51' W 003°28'8 8.2
2015-Jul-24 09:33N 58°58' W 003°18'8 7.9
2015-Jul-24 08:33N 58°52' W 003°28'1615.6
2015-Jul-24 07:33N 58°37' W 003°32'7 7.0
2015-Jul-24 06:33N 58°44' W 003°29'1515.3
2015-Jul-24 05:33N 58°58' W 003°18'0 0.2
2015-Jul-24 04:32N 58°58' W 003°18'0 0.0
2015-Jul-24 03:32N 58°58' W 003°18'0 0.0
2015-Jul-24 02:32N 58°58' W 003°18'0 0.0
2015-Jul-24 01:32N 58°58' W 003°18'0 0.0
2015-Jul-24 00:32N 58°58' W 003°18'0 0.0
2015-Jul-23 23:32N 58°58' W 003°18'0 0.0
2015-Jul-23 22:32N 58°58' W 003°18'0 0.0
2015-Jul-23 21:32N 58°58' W 003°18'0 0.0
2015-Jul-23 20:32N 58°58' W 003°18'1 1.1
2015-Jul-23 19:33N 58°57' W 003°17'1615.7
2015-Jul-23 18:33N 58°43' W 003°30'6 6.0
2015-Jul-23 17:33N 58°37' W 003°32'1312.6
2015-Jul-23 16:33N 58°49' W 003°31'1110.9
2015-Jul-23 15:33N 58°58' W 003°18'0 0.0
2015-Jul-23 14:33N 58°58' W 003°18'5 5.0
2015-Jul-23 13:33N 58°54' W 003°12'1514.7
2015-Jul-23 12:33N 58°40' W 003°25'5 5.4
2015-Jul-23 11:33N 58°37' W 003°32'1716.7
2015-Jul-23 10:33N 58°53' W 003°28'7 7.0
2015-Jul-23 09:33N 58°58' W 003°18'8 7.8
2015-Jul-23 08:33N 58°52' W 003°28'1611.8
2015-Jul-23 07:14N 58°37' W 003°32'6 8.9
2015-Jul-23 06:33N 58°43' W 003°30'1615.5
2015-Jul-23 05:33N 58°57' W 003°18'1 1.0
2015-Jul-23 04:30N 58°58' W 003°18'0 0.0
2015-Jul-23 03:30N 58°58' W 003°18'0 0.0
2015-Jul-23 02:30N 58°58' W 003°18'0 0.0
2015-Jul-23 01:30N 58°58' W 003°18'0 0.0
2015-Jul-23 00:30N 58°58' W 003°18'0 0.0
2015-Jul-22 23:24N 58°58' W 003°18'0 0.0
2015-Jul-22 22:30N 58°58' W 003°18'0 0.0
2015-Jul-22 21:33N 58°58' W 003°18'0 0.0
2015-Jul-22 20:33N 58°58' W 003°18'0 0.0
2015-Jul-22 19:33N 58°58' W 003°18'1211.6
2015-Jul-22 18:33N 58°48' W 003°29'1111.2
2015-Jul-22 17:33N 58°37' W 003°32'1010.1
2015-Jul-22 16:33N 58°47' W 003°29'1312.7
2015-Jul-22 15:33N 58°58' W 003°18'0 0.0
2015-Jul-22 14:33N 58°58' W 003°18'1 0.7
2015-Jul-22 13:33N 58°57' W 003°17'1515.5
2015-Jul-22 12:34N 58°43' W 003°30'7 6.5
2015-Jul-22 11:32N 58°37' W 003°32'1616.4
2015-Jul-22 10:33N 58°53' W 003°28'7 7.4
2015-Jul-22 09:33N 58°58' W 003°18'7 7.4
2015-Jul-22 08:33N 58°52' W 003°27'1615.1
2015-Jul-22 07:30N 58°37' W 003°32'7 7.4
2015-Jul-22 06:33N 58°43' W 003°30'1515.3
2015-Jul-22 05:34N 58°57' W 003°18'0 0.4
2015-Jul-22 04:31N 58°58' W 003°18'0 0.0
2015-Jul-22 03:31N 58°58' W 003°18'0 0.0
2015-Jul-22 02:31N 58°58' W 003°18'0 0.0
2015-Jul-22 01:31N 58°58' W 003°18'0 0.0
2015-Jul-22 00:31N 58°58' W 003°18'0 0.0
2015-Jul-21 23:31N 58°58' W 003°18'0 0.0
2015-Jul-21 22:31N 58°58' W 003°18'0 0.0
2015-Jul-21 21:31N 58°58' W 003°18'0 0.0
2015-Jul-21 20:31N 58°58' W 003°18'0 0.2
2015-Jul-21 19:33N 58°58' W 003°18'1514.8
2015-Jul-21 18:33N 58°44' W 003°29'8 7.6
2015-Jul-21 17:33N 58°37' W 003°32'1111.2
2015-Jul-21 16:33N 58°48' W 003°29'1211.6
2015-Jul-21 15:33N 58°58' W 003°18'0 0.0
2015-Jul-21 14:33N 58°58' W 003°18'0 0.1
2015-Jul-21 13:33N 58°58' W 003°18'1514.9
2015-Jul-21 12:33N 58°44' W 003°30'8 7.7
2015-Jul-21 11:33N 58°37' W 003°32'1515.2
2015-Jul-21 10:33N 58°52' W 003°28'8 8.2
2015-Jul-21 09:33N 58°58' W 003°18'8 7.7
2015-Jul-21 08:33N 58°52' W 003°28'1615.8
2015-Jul-21 07:33N 58°37' W 003°32'6 5.7
2015-Jul-21 06:33N 58°42' W 003°30'1616.3
2015-Jul-21 05:34N 58°57' W 003°17'1 0.8
2015-Jul-21 04:32N 58°58' W 003°18'0 0.0
2015-Jul-21 03:32N 58°58' W 003°18'0 0.0
2015-Jul-21 02:32N 58°58' W 003°18'0 0.0
2015-Jul-21 01:32N 58°58' W 003°18'0 0.0
2015-Jul-21 00:32N 58°58' W 003°18'0 0.0
2015-Jul-20 23:32N 58°58' W 003°18'0 0.0
2015-Jul-20 22:32N 58°58' W 003°18'0 0.0
2015-Jul-20 21:32N 58°58' W 003°18'0 0.0
2015-Jul-20 20:32N 58°58' W 003°18'0 0.0
2015-Jul-20 19:33N 58°58' W 003°18'1313.3
2015-Jul-20 18:33N 58°46' W 003°29'9 9.4
2015-Jul-20 17:33N 58°37' W 003°32'1110.7
2015-Jul-20 16:33N 58°47' W 003°29'1212.2
2015-Jul-20 15:33N 58°58' W 003°18'0 0.0
2015-Jul-20 14:33N 58°58' W 003°18'0 0.5
2015-Jul-20 13:34N 58°57' W 003°18'1515.2
2015-Jul-20 12:33N 58°43' W 003°30'7 6.9
2015-Jul-20 11:33N 58°37' W 003°32'1615.5
2015-Jul-20 10:33N 58°52' W 003°28'8 7.9
2015-Jul-20 09:33N 58°58' W 003°18'8 7.6
2015-Jul-20 08:33N 58°52' W 003°28'1615.8
2015-Jul-20 07:33N 58°37' W 003°32'6 6.4
2015-Jul-20 06:33N 58°43' W 003°30'1615.8
2015-Jul-20 05:33N 58°57' W 003°18'0 0.4
2015-Jul-20 04:30N 58°58' W 003°18'0 0.0
2015-Jul-20 03:30N 58°58' W 003°18'0 0.0
2015-Jul-20 02:30N 58°58' W 003°18'0 0.0
2015-Jul-20 01:30N 58°58' W 003°18'0 0.0
2015-Jul-20 00:30N 58°58' W 003°18'0 0.0
2015-Jul-19 23:30N 58°58' W 003°18'0 0.0
2015-Jul-19 22:30N 58°58' W 003°18'0 0.0
2015-Jul-19 21:30N 58°58' W 003°18'0 0.0
2015-Jul-19 20:30N 58°58' W 003°18'0 0.0
2015-Jul-19 19:33N 58°58' W 003°18'1211.8
2015-Jul-19 18:33N 58°48' W 003°29'1111.0
2015-Jul-19 17:33N 58°37' W 003°32'1110.9
2015-Jul-19 16:33N 58°47' W 003°28'  

Dump ship's entire track history